Time;durP1;ratioP1;P1;durP2;ratioP2;P2;SDS_P1;SDS_P2;PMS_P1;PMS_P2;Temp;Humidity;BMP_temperature;BMP_pressure;BME280_temperature;BME280_humidity;BME280_pressure;Samples;Min_cycle;Max_cycle;Signal;HPM_P1;HPM_P2
2022/06/22 00:01:43;;;;;;;3.00;1.77;;;26.80;45.20;;;;;;2292374;55;21001;-73
2022/06/22 00:04:54;;;;;;;3.22;1.80;;;26.80;45.80;;;;;;2290386;55;20937;-74
2022/06/22 00:07:26;;;;;;;3.28;1.95;;;26.80;45.60;;;;;;2290978;55;21016;-71
2022/06/22 00:11:27;;;;;;;3.30;1.92;;;26.80;45.70;;;;;;2291144;55;20948;-71
2022/06/22 00:13:55;;;;;;;2.92;1.60;;;26.80;46.00;;;;;;2296973;55;21453;-71
2022/06/22 00:16:26;;;;;;;3.15;1.65;;;26.80;45.60;;;;;;2473126;54;21020;-70
2022/06/22 00:18:53;;;;;;;3.05;1.75;;;26.80;45.80;;;;;;2289558;55;20924;-74
2022/06/22 00:21:40;;;;;;;5.70;1.95;;;26.80;45.70;;;;;;2356721;54;21509;-73
2022/06/22 00:26:46;;;;;;;3.12;1.80;;;26.80;46.00;;;;;;2525911;54;20948;-72
2022/06/22 00:29:19;;;;;;;7.37;1.58;;;26.80;46.10;;;;;;2297955;55;21061;-72
2022/06/22 00:32:23;;;;;;;3.40;1.73;;;26.70;45.90;;;;;;2345625;54;21480;-75
2022/06/22 00:34:49;;;;;;;4.75;1.98;;;26.70;46.60;;;;;;2290880;55;20944;-74
2022/06/22 00:37:37;;;;;;;3.92;1.92;;;26.70;46.70;;;;;;2301481;54;20968;-75
2022/06/22 00:40:15;;;;;;;4.32;2.00;;;26.70;47.40;;;;;;2289874;55;21742;-73
2022/06/22 00:42:43;;;;;;;4.32;1.77;;;26.70;47.80;;;;;;2522428;54;21029;-73
2022/06/22 00:45:24;;;;;;;5.07;1.87;;;26.60;47.40;;;;;;2291021;55;21044;-73
2022/06/22 00:47:56;;;;;;;6.37;1.83;;;26.60;47.70;;;;;;2526198;54;20937;-74
2022/06/22 00:51:15;;;;;;;4.75;1.92;;;26.50;47.70;;;;;;2372123;54;20944;-74
2022/06/22 00:53:51;;;;;;;3.30;1.80;;;26.50;48.20;;;;;;2295314;55;21729;-74
2022/06/22 00:56:59;;;;;;;4.80;2.00;;;26.40;48.20;;;;;;2525852;54;21799;-75
2022/06/22 00:59:54;;;;;;;3.62;1.80;;;26.40;48.70;;;;;;2294540;55;20997;-73
2022/06/22 01:02:54;;;;;;;4.37;2.12;;;26.30;48.60;;;;;;2292661;55;21016;-74
2022/06/22 01:05:37;;;;;;;3.78;2.00;;;26.30;49.10;;;;;;2291059;55;21528;-74
2022/06/22 01:08:25;;;;;;;5.72;2.40;;;26.30;49.10;;;;;;2290920;55;21024;-74
2022/06/22 01:14:19;;;;;;;3.30;2.00;;;26.20;50.10;;;;;;2432073;54;20928;-74
2022/06/22 01:16:47;;;;;;;4.57;2.15;;;26.20;49.30;;;;;;2291809;55;21484;-74
2022/06/22 01:19:51;;;;;;;4.40;2.20;;;26.10;49.30;;;;;;2290993;55;20913;-75
2022/06/22 01:22:55;;;;;;;4.60;2.33;;;26.10;50.10;;;;;;2294180;55;21758;-75
2022/06/22 01:27:18;;;;;;;3.67;1.98;;;26.10;50.40;;;;;;2290768;55;21572;-74
2022/06/22 01:29:52;;;;;;;4.12;2.28;;;26.10;50.00;;;;;;2275507;55;21005;-75
2022/06/22 01:32:36;;;;;;;3.53;2.20;;;26.00;50.10;;;;;;2295538;55;21045;-73
2022/06/22 01:35:09;;;;;;;4.00;2.05;;;26.00;50.70;;;;;;2296988;55;21076;-74
2022/06/22 01:37:36;;;;;;;3.90;2.28;;;26.00;50.40;;;;;;2525599;54;21631;-73
2022/06/22 01:41:52;;;;;;;4.03;2.50;;;25.90;50.50;;;;;;2291260;55;20976;-73
2022/06/22 01:44:43;;;;;;;4.43;2.45;;;25.90;51.60;;;;;;2389509;54;20980;-74
2022/06/22 01:47:18;;;;;;;4.10;2.53;;;25.90;51.10;;;;;;2414570;54;20981;-73
2022/06/22 01:50:16;;;;;;;3.92;2.60;;;25.80;51.00;;;;;;2289268;55;21410;-74
2022/06/22 01:53:24;;;;;;;5.03;2.70;;;25.80;51.90;;;;;;2290975;55;21012;-72
2022/06/22 01:56:52;;;;;;;3.55;2.37;;;25.70;51.80;;;;;;2290217;55;20988;-72
2022/06/22 01:59:44;;;;;;;4.40;2.30;;;25.70;52.00;;;;;;2291096;55;21112;-75
2022/06/22 02:02:19;;;;;;;3.22;2.03;;;25.70;51.80;;;;;;2442608;54;21356;-74
2022/06/22 02:04:49;;;;;;;3.80;2.40;;;25.60;51.40;;;;;;2350896;54;21807;-73
2022/06/22 02:07:44;;;;;;;4.78;2.65;;;25.50;51.60;;;;;;2294148;55;20937;-73
2022/06/22 02:10:42;;;;;;;4.20;2.70;;;25.50;52.40;;;;;;2341338;54;20936;-74
2022/06/22 02:13:36;;;;;;;3.97;2.20;;;25.50;52.50;;;;;;2290756;55;20980;-72
2022/06/22 02:17:04;;;;;;;3.08;1.80;;;25.50;52.70;;;;;;2291274;55;21754;-73
2022/06/22 02:19:32;;;;;;;3.28;1.92;;;25.40;52.50;;;;;;2525784;54;21021;-74
2022/06/22 02:22:01;;;;;;;3.83;2.20;;;25.40;51.90;;;;;;2525707;54;20964;-73
2022/06/22 02:24:46;;;;;;;4.50;2.47;;;25.40;52.10;;;;;;2272680;55;21386;-71
2022/06/22 02:27:20;;;;;;;3.40;2.17;;;25.40;52.30;;;;;;2292267;55;20937;-73
2022/06/22 02:29:51;;;;;;;5.00;2.60;;;25.30;52.40;;;;;;2290363;55;21032;-74
2022/06/22 02:32:19;;;;;;;4.30;2.50;;;25.30;52.50;;;;;;2290693;55;21023;-73
2022/06/22 02:34:52;;;;;;;3.85;2.05;;;25.30;52.60;;;;;;2301312;55;22037;-72
2022/06/22 02:37:20;;;;;;;3.42;2.08;;;25.30;53.00;;;;;;2288223;55;21118;-73
2022/06/22 02:39:51;;;;;;;3.75;2.30;;;25.30;52.60;;;;;;2285051;55;20972;-73
2022/06/22 02:45:04;;;;;;;4.30;2.25;;;25.20;52.70;;;;;;2295091;55;20945;-72
2022/06/22 02:48:29;;;;;;;4.12;2.70;;;25.20;52.70;;;;;;2290649;55;21084;-71
2022/06/22 02:51:08;;;;;;;3.45;2.17;;;25.30;53.90;;;;;;2294031;55;25302;-72
2022/06/22 02:53:38;;;;;;;3.60;2.15;;;25.20;53.30;;;;;;2273120;55;20961;-72
2022/06/22 02:56:06;;;;;;;4.57;2.47;;;25.20;53.00;;;;;;2272532;55;21715;-71
2022/06/22 02:58:34;;;;;;;6.05;2.80;;;25.20;52.90;;;;;;2290750;55;20976;-73
2022/06/22 03:01:04;;;;;;;5.12;2.72;;;25.20;53.10;;;;;;2291016;55;21488;-75
2022/06/22 03:03:30;;;;;;;4.07;2.47;;;25.20;53.10;;;;;;2290879;55;21541;-72
2022/06/22 03:05:57;;;;;;;4.28;2.62;;;25.20;53.10;;;;;;2380552;54;20995;-74
2022/06/22 03:08:27;;;;;;;3.87;2.62;;;25.10;53.00;;;;;;2449296;54;20925;-72
2022/06/22 03:10:58;;;;;;;4.57;2.87;;;25.10;53.00;;;;;;2294940;55;21461;-72
2022/06/22 03:13:51;;;;;;;3.90;2.77;;;25.10;53.50;;;;;;2290452;54;21062;-72
2022/06/22 03:16:37;;;;;;;4.53;2.67;;;25.10;53.60;;;;;;2290495;55;20928;-72
2022/06/22 03:19:13;;;;;;;4.78;2.75;;;25.10;53.50;;;;;;2293220;55;21013;-73
2022/06/22 03:21:40;;;;;;;4.75;2.75;;;25.10;53.60;;;;;;2289531;55;20929;-72
2022/06/22 03:24:56;;;;;;;4.80;2.85;;;25.10;53.50;;;;;;2294963;55;20945;-72
2022/06/22 03:27:32;;;;;;;4.57;2.55;;;25.00;53.90;;;;;;2290695;55;21534;-72
2022/06/22 03:30:03;;;;;;;4.53;2.83;;;25.10;53.60;;;;;;2291257;55;21020;-72
2022/06/22 03:32:54;;;;;;;4.00;2.85;;;25.00;54.00;;;;;;2451022;54;21461;-72
2022/06/22 03:35:27;;;;;;;4.60;2.83;;;25.00;54.70;;;;;;2290891;55;20928;-72
2022/06/22 03:38:04;;;;;;;4.65;3.15;;;25.00;54.20;;;;;;2290942;55;21008;-72
2022/06/22 03:40:51;;;;;;;4.28;2.67;;;25.00;54.60;;;;;;2294004;55;21089;-72
2022/06/22 03:43:40;;;;;;;3.60;2.28;;;25.00;54.40;;;;;;2290682;55;20976;-72
2022/06/22 03:46:13;;;;;;;4.05;2.37;;;25.00;54.10;;;;;;2290263;55;20932;-71
2022/06/22 03:48:51;;;;;;;3.15;2.10;;;25.00;54.00;;;;;;2526349;54;21773;-74
2022/06/22 03:51:23;;;;;;;4.75;2.55;;;25.00;54.30;;;;;;2290929;55;21528;-72
2022/06/22 03:54:05;;;;;;;5.00;3.00;;;25.00;54.50;;;;;;2513977;54;21012;-73
2022/06/22 03:56:34;;;;;;;4.20;2.50;;;25.00;55.00;;;;;;2289765;55;21531;-73
2022/06/22 03:59:02;;;;;;;3.62;2.58;;;25.00;54.50;;;;;;2291214;55;20960;-72
2022/06/22 04:01:28;;;;;;;4.72;3.22;;;25.00;54.60;;;;;;2337494;54;20975;-72
2022/06/22 04:03:55;;;;;;;5.18;3.35;;;25.00;54.80;;;;;;2290810;55;21036;-72
2022/06/22 04:06:32;;;;;;;5.53;2.85;;;24.90;54.90;;;;;;2297654;55;20949;-73
2022/06/22 04:09:03;;;;;;;4.30;2.80;;;24.90;55.10;;;;;;2293096;55;20956;-71
2022/06/22 04:11:35;;;;;;;4.25;2.80;;;24.90;55.10;;;;;;2295315;55;20967;-74
2022/06/22 04:15:55;;;;;;;4.72;2.85;;;24.80;55.20;;;;;;2293375;55;20965;-72
2022/06/22 04:18:23;;;;;;;5.60;3.47;;;24.90;55.80;;;;;;2378905;54;20973;-74
2022/06/22 04:21:00;;;;;;;4.60;3.37;;;24.80;54.80;;;;;;2295244;55;20965;-70
2022/06/22 04:23:40;;;;;;;5.05;3.50;;;24.80;55.10;;;;;;2524128;53;21562;-72
2022/06/22 04:26:26;;;;;;;5.55;3.03;;;24.90;55.40;;;;;;2297528;55;20985;-72
2022/06/22 04:28:58;;;;;;;5.05;3.15;;;24.80;55.10;;;;;;2298262;55;20982;-73
2022/06/22 04:31:29;;;;;;;4.15;2.87;;;24.80;55.20;;;;;;2293785;55;20972;-72
2022/06/22 04:34:02;;;;;;;4.55;3.22;;;24.80;55.20;;;;;;2294755;55;20953;-70
2022/06/22 04:36:50;;;;;;;5.43;3.20;;;24.80;55.20;;;;;;2290576;55;20942;-72
2022/06/22 04:39:30;;;;;;;4.87;2.95;;;24.80;55.80;;;;;;2392975;54;20987;-72
2022/06/22 04:42:00;;;;;;;4.57;3.20;;;24.80;55.50;;;;;;2297556;55;20990;-72
2022/06/22 04:44:28;;;;;;;4.95;3.60;;;24.80;55.20;;;;;;2291583;55;21092;-74
2022/06/22 04:46:57;;;;;;;4.53;3.15;;;24.80;55.40;;;;;;2290445;55;20928;-71
2022/06/22 04:49:35;;;;;;;5.45;3.50;;;24.80;55.40;;;;;;2290773;55;21576;-72
2022/06/22 04:52:06;;;;;;;5.55;3.42;;;24.80;55.70;;;;;;2291879;55;20924;-72
2022/06/22 04:54:38;;;;;;;6.05;3.65;;;24.80;55.60;;;;;;2290382;55;20971;-72
2022/06/22 04:57:32;;;;;;;6.03;2.97;;;24.80;55.70;;;;;;2292652;55;20956;-71
2022/06/22 05:00:00;;;;;;;3.80;2.53;;;24.80;56.10;;;;;;2290665;55;20920;-71
2022/06/22 05:02:27;;;;;;;4.57;2.95;;;24.80;55.60;;;;;;2497988;54;21366;-72
2022/06/22 05:05:05;;;;;;;4.05;2.42;;;24.80;55.60;;;;;;2290759;55;21028;-72
2022/06/22 05:07:47;;;;;;;4.32;2.87;;;24.80;55.90;;;;;;2291592;55;20964;-74
2022/06/22 05:10:19;;;;;;;4.45;2.70;;;24.80;56.10;;;;;;2307887;54;21489;-72
2022/06/22 05:13:02;;;;;;;4.40;2.55;;;24.80;55.80;;;;;;2407739;54;20998;-73
2022/06/22 05:15:36;;;;;;;3.45;2.20;;;24.90;56.30;;;;;;2525342;54;20965;-72
2022/06/22 05:18:04;;;;;;;4.68;2.50;;;24.90;55.80;;;;;;2291064;55;20936;-73
2022/06/22 05:20:41;;;;;;;4.57;2.60;;;24.90;55.90;;;;;;2351225;54;20975;-70
2022/06/22 05:23:07;;;;;;;4.00;2.35;;;24.90;56.20;;;;;;2291256;55;20935;-72
2022/06/22 05:25:33;;;;;;;5.00;2.42;;;24.90;55.80;;;;;;2516720;54;20981;-73
2022/06/22 05:28:26;;;;;;;5.30;2.53;;;24.90;55.80;;;;;;2290988;55;20920;-72
2022/06/22 05:31:03;;;;;;;4.53;2.67;;;25.00;56.40;;;;;;2291444;55;21008;-71
2022/06/22 05:33:30;;;;;;;3.65;2.55;;;25.00;56.10;;;;;;2293673;55;22478;-71
2022/06/22 05:36:03;;;;;;;3.65;2.17;;;25.00;56.00;;;;;;2293469;55;21026;-73
2022/06/22 05:38:37;;;;;;;4.60;2.12;;;25.00;56.10;;;;;;2293951;55;20956;-71
2022/06/22 05:41:07;;;;;;;4.07;2.28;;;25.00;56.00;;;;;;2292712;55;20941;-71
2022/06/22 05:43:35;;;;;;;4.07;2.55;;;25.00;56.00;;;;;;2297644;55;20965;-72
2022/06/22 05:46:02;;;;;;;4.53;2.90;;;25.10;56.10;;;;;;2525218;54;21007;-73
2022/06/22 05:48:31;;;;;;;4.60;2.87;;;25.10;56.00;;;;;;2294592;55;20980;-71
2022/06/22 05:51:02;;;;;;;5.05;3.00;;;25.10;56.00;;;;;;2522116;54;21033;-70
2022/06/22 05:53:42;;;;;;;5.57;3.15;;;25.10;56.60;;;;;;2305123;54;21016;-73
2022/06/22 05:56:36;;;;;;;4.55;3.17;;;25.20;56.40;;;;;;2302364;54;20953;-72
2022/06/22 05:59:38;;;;;;;6.45;3.58;;;25.20;56.50;;;;;;2418045;54;21457;-72
2022/06/22 06:02:06;;;;;;;;;;;25.20;56.00;;;;;;2296231;55;20990;-72
2022/06/22 06:04:49;;;;;;;4.57;2.72;;;25.20;56.00;;;;;;2293336;55;20145;-71
2022/06/22 06:07:38;;;;;;;5.25;3.15;;;25.20;56.10;;;;;;2291414;55;20948;-71
2022/06/22 06:10:27;;;;;;;5.18;3.22;;;25.20;56.00;;;;;;2392934;54;20986;-71
2022/06/22 06:13:01;;;;;;;5.40;3.40;;;25.20;56.00;;;;;;2290207;55;21088;-69
2022/06/22 06:15:29;;;;;;;4.53;2.95;;;25.20;56.30;;;;;;2289515;55;21052;-72
2022/06/22 06:17:57;;;;;;;5.00;3.42;;;25.20;56.10;;;;;;2290870;55;20936;-72
2022/06/22 06:20:34;;;;;;;5.65;3.72;;;25.20;56.10;;;;;;2290764;55;20908;-71
2022/06/22 06:23:04;;;;;;;4.37;2.85;;;25.20;56.30;;;;;;2290679;55;21504;-72
2022/06/22 06:28:24;;;;;;;5.40;3.85;;;25.30;56.40;;;;;;2290670;55;20976;-75
2022/06/22 06:30:51;;;;;;;6.45;3.95;;;25.30;56.50;;;;;;2292494;54;20984;-71
2022/06/22 06:33:37;;;;;;;6.07;4.62;;;25.30;56.60;;;;;;2379932;54;21674;-72
2022/06/22 06:36:18;;;;;;;4.97;3.47;;;25.40;57.30;;;;;;2290440;55;21591;-72
2022/06/22 06:38:59;;;;;;;6.55;4.28;;;25.40;57.10;;;;;;2290960;55;20952;-70
2022/06/22 06:41:35;;;;;;;7.43;4.62;;;25.40;56.90;;;;;;2291385;55;20964;-71
2022/06/22 06:44:05;;;;;;;6.25;4.12;;;25.40;57.00;;;;;;2290740;55;20948;-71
2022/06/22 06:46:51;;;;;;;6.78;4.05;;;25.40;56.90;;;;;;2290518;55;20952;-72
2022/06/22 06:50:14;;;;;;;5.78;3.85;;;25.40;57.10;;;;;;2290546;55;20932;-71
2022/06/22 06:52:59;;;;;;;6.60;4.00;;;25.50;57.40;;;;;;2290816;55;20945;-70
2022/06/22 06:56:48;;;;;;;4.87;3.50;;;25.50;57.40;;;;;;2290930;55;20956;-71
2022/06/22 06:59:19;;;;;;;4.22;3.25;;;25.60;57.20;;;;;;2290950;55;20944;-70
2022/06/22 07:01:46;;;;;;;4.82;3.67;;;25.60;56.90;;;;;;2290729;55;20968;-72
2022/06/22 07:04:43;;;;;;;5.57;3.47;;;25.70;56.80;;;;;;2291089;55;21073;-71
2022/06/22 07:07:37;;;;;;;5.05;3.28;;;25.70;56.90;;;;;;2360828;54;21549;-70
2022/06/22 07:10:11;;;;;;;4.90;3.12;;;25.70;57.00;;;;;;2289665;55;20989;-70
2022/06/22 07:12:57;;;;;;;6.15;3.55;;;25.70;56.60;;;;;;2289870;55;20993;-72
2022/06/22 07:15:28;;;;;;;5.75;3.30;;;25.70;56.60;;;;;;2272312;55;20987;-71
2022/06/22 07:17:54;;;;;;;7.60;3.65;;;25.80;56.70;;;;;;2298240;55;21001;-72
2022/06/22 07:20:27;;;;;;;6.82;3.72;;;25.80;56.70;;;;;;2363575;54;22018;-75
2022/06/22 07:23:00;;;;;;;6.55;4.15;;;25.90;56.90;;;;;;2345902;54;20992;-72
2022/06/22 07:25:44;;;;;;;4.95;4.00;;;25.90;56.80;;;;;;2290660;55;21496;-71
2022/06/22 07:28:23;;;;;;;5.00;3.62;;;25.90;56.90;;;;;;2290616;55;21447;-71
2022/06/22 07:30:55;;;;;;;6.20;4.43;;;25.90;56.80;;;;;;2400920;54;20992;-73
2022/06/22 07:34:54;;;;;;;10.30;4.62;;;26.00;56.80;;;;;;2290897;55;21035;-72
2022/06/22 07:37:28;;;;;;;5.32;3.55;;;26.00;57.10;;;;;;2290261;55;20944;-73
2022/06/22 07:40:16;;;;;;;6.47;4.25;;;26.00;56.90;;;;;;2290598;55;21042;-74
2022/06/22 07:42:48;;;;;;;6.18;4.10;;;26.00;57.20;;;;;;2291286;55;20956;-73
2022/06/22 07:45:16;;;;;;;6.50;4.35;;;26.00;57.10;;;;;;2290724;55;21023;-72
2022/06/22 07:48:43;;;;;;;6.65;4.68;;;26.00;57.00;;;;;;2293363;55;21459;-72
2022/06/22 07:51:16;;;;;;;7.22;4.03;;;26.10;57.50;;;;;;2368811;54;21833;-73
2022/06/22 07:57:07;;;;;;;6.93;3.95;;;26.10;57.30;;;;;;2304873;54;20945;-72
2022/06/22 08:01:37;;;;;;;4.95;2.95;;;26.10;57.50;;;;;;2295524;55;20994;-72
2022/06/22 08:05:56;;;;;;;6.40;2.47;;;26.20;57.10;;;;;;2291170;55;20941;-73
2022/06/22 08:08:37;;;;;;;5.57;2.40;;;26.20;57.10;;;;;;2289804;55;20967;-73
2022/06/22 08:11:23;;;;;;;5.27;1.87;;;26.20;57.20;;;;;;2423493;54;20981;-73
2022/06/22 08:13:54;;;;;;;3.67;1.80;;;26.20;56.80;;;;;;2294129;55;20969;-73
2022/06/22 08:16:44;;;;;;;3.85;1.92;;;26.20;56.90;;;;;;2290344;55;20916;-72
2022/06/22 08:19:10;;;;;;;6.25;1.42;;;26.20;56.80;;;;;;2290575;55;21023;-73
2022/06/22 08:21:43;;;;;;;4.75;1.62;;;26.20;56.60;;;;;;2294170;55;20949;-74
2022/06/22 08:24:09;;;;;;;;;;;26.20;56.60;;;;;;2298391;55;21449;-73
2022/06/22 08:26:36;;;;;;;4.50;1.20;;;26.20;56.40;;;;;;2294037;54;20745;-73
2022/06/22 08:29:02;;;;;;;5.10;1.58;;;26.20;56.10;;;;;;2291003;55;21052;-75
2022/06/22 08:31:31;;;;;;;6.60;1.90;;;26.20;56.20;;;;;;2293388;55;20949;-74
2022/06/22 08:33:59;;;;;;;4.05;1.05;;;26.10;56.30;;;;;;2291109;55;20948;-75
2022/06/22 08:36:34;;;;;;;4.95;1.27;;;26.10;56.20;;;;;;2297043;55;20953;-72
2022/06/22 08:39:18;;;;;;;3.97;1.12;;;26.10;56.30;;;;;;2294393;55;20973;-78
2022/06/22 08:42:18;;;;;;;4.50;1.60;;;26.10;56.40;;;;;;2300703;55;21022;-74
2022/06/22 08:45:01;;;;;;;8.32;1.30;;;26.00;56.50;;;;;;2276348;55;21505;-75
2022/06/22 08:47:59;;;;;;;8.52;1.92;;;26.00;56.30;;;;;;2297757;55;22516;-74
2022/06/22 08:50:50;;;;;;;4.85;1.25;;;25.90;56.70;;;;;;2371216;53;21029;-74
2022/06/22 08:53:34;;;;;;;4.28;1.23;;;25.90;56.60;;;;;;2303044;54;21509;-75
2022/06/22 08:56:30;;;;;;;5.93;1.62;;;25.90;56.70;;;;;;2290216;55;21671;-79
2022/06/22 09:02:14;;;;;;;7.70;1.80;;;25.90;56.80;;;;;;2523533;54;21017;-74
2022/06/22 09:10:04;;;;;;;5.45;1.30;;;25.80;56.60;;;;;;2295995;55;21053;-74
2022/06/22 09:17:53;;;;;;;4.40;1.10;;;25.80;56.40;;;;;;2289865;55;20940;-74
2022/06/22 09:24:58;;;;;;;2.55;0.70;;;25.80;56.40;;;;;;2291178;55;21087;-75
2022/06/22 09:28:06;;;;;;;4.20;0.97;;;25.80;56.50;;;;;;2272843;55;21974;-74
2022/06/22 09:33:26;;;;;;;6.72;1.30;;;25.80;56.70;;;;;;2291081;55;20943;-74
2022/06/22 09:36:37;;;;;;;5.45;1.50;;;25.80;56.70;;;;;;2298058;55;21009;-73
2022/06/22 09:39:30;;;;;;;6.45;1.80;;;25.80;57.00;;;;;;2293899;55;21036;-74
2022/06/22 09:43:45;;;;;;;5.37;1.48;;;25.80;56.90;;;;;;2291656;55;20952;-77
2022/06/22 09:46:40;;;;;;;4.68;1.35;;;25.80;57.10;;;;;;2298076;55;21038;-75
2022/06/22 09:52:58;;;;;;;7.47;1.58;;;25.70;57.10;;;;;;2290934;55;20973;-74
2022/06/22 09:58:03;;;;;;;4.70;1.30;;;25.70;56.80;;;;;;2297817;55;21016;-75
2022/06/22 10:00:46;;;;;;;;;;;25.70;57.00;;;;;;2294123;55;20936;-76
2022/06/22 10:03:49;;;;;;;6.03;0.95;;;25.70;56.60;;;;;;2333600;54;20065;-78
2022/06/22 10:06:41;;;;;;;5.95;1.35;;;25.70;56.90;;;;;;2294414;55;20973;-75
2022/06/22 10:09:23;;;;;;;6.03;1.60;;;25.60;57.10;;;;;;2351303;54;20986;-75
2022/06/22 10:16:51;;;;;;;7.90;1.73;;;25.60;57.40;;;;;;2291119;55;21311;-78
2022/06/22 10:20:14;;;;;;;7.28;1.70;;;25.50;57.20;;;;;;2366314;54;21012;-75
2022/06/22 10:24:42;;;;;;;5.95;1.25;;;25.50;57.50;;;;;;2297842;55;20974;-76
2022/06/22 10:27:39;;;;;;;4.28;1.00;;;25.50;57.30;;;;;;2293038;55;20988;-74
2022/06/22 10:31:42;;;;;;;3.92;1.40;;;25.50;57.80;;;;;;2293830;55;21012;-74
2022/06/22 10:35:06;;;;;;;5.78;1.83;;;25.50;57.60;;;;;;2291245;55;21009;-75
2022/06/22 10:46:46;;;;;;;5.05;1.40;;;25.60;58.00;;;;;;2290720;55;20968;-75
2022/06/22 10:49:51;;;;;;;4.87;1.87;;;25.60;58.00;;;;;;2466617;54;21453;-73
2022/06/22 10:57:32;;;;;;;5.22;1.50;;;25.60;58.20;;;;;;2437373;54;20957;-79
2022/06/22 11:00:07;;;;;;;6.10;1.50;;;25.70;58.10;;;;;;2290864;55;21814;-76
2022/06/22 11:03:02;;;;;;;5.15;1.80;;;25.80;58.10;;;;;;2291478;55;20943;-75
2022/06/22 11:06:05;;;;;;;5.12;1.65;;;25.80;58.30;;;;;;2294576;55;21073;-74
2022/06/22 11:09:09;;;;;;;5.32;1.62;;;25.90;58.30;;;;;;2305067;54;21055;-75
2022/06/22 11:12:27;;;;;;;5.85;1.70;;;25.90;58.40;;;;;;2296525;55;20972;-75
2022/06/22 11:20:17;;;;;;;7.00;1.65;;;25.90;58.90;;;;;;2290555;55;20962;-79
2022/06/22 11:22:48;;;;;;;7.30;1.52;;;26.00;58.60;;;;;;2352961;54;21050;-76
2022/06/22 11:30:53;;;;;;;4.28;1.60;;;26.30;58.40;;;;;;2290553;55;20940;-75
2022/06/22 11:35:30;;;;;;;4.78;1.17;;;26.30;58.20;;;;;;2293070;55;20972;-78
2022/06/22 11:41:08;;;;;;;2.87;1.00;;;26.40;58.50;;;;;;2294207;55;20968;-78
2022/06/22 11:44:30;;;;;;;5.45;1.23;;;26.50;58.80;;;;;;2290905;55;21016;-75
2022/06/22 11:46:58;;;;;;;4.45;1.20;;;26.60;58.70;;;;;;2418013;54;21009;-77
2022/06/22 11:51:20;;;;;;;5.03;1.55;;;26.70;58.40;;;;;;2292854;55;21009;-76
2022/06/22 11:54:17;;;;;;;6.18;1.30;;;26.70;58.70;;;;;;2296501;55;20970;-74
2022/06/22 11:57:51;;;;;;;4.40;1.50;;;26.90;58.70;;;;;;2290210;55;21044;-77
2022/06/22 12:01:46;;;;;;;4.35;1.83;;;27.00;58.70;;;;;;2290818;55;20952;-74
2022/06/22 12:07:08;;;;;;;4.47;1.10;;;27.10;58.40;;;;;;2312049;54;20968;-74
2022/06/22 12:20:50;;;;;;;2.90;1.08;;;27.30;57.50;;;;;;2275901;55;20989;-74
2022/06/22 12:23:44;;;;;;;2.35;0.93;;;27.40;57.10;;;;;;2525335;54;21229;-75
2022/06/22 12:27:53;;;;;;;3.75;1.20;;;27.40;56.80;;;;;;2290848;55;20984;-74
2022/06/22 12:31:55;;;;;;;3.85;1.00;;;27.40;56.90;;;;;;2293582;55;20945;-75
2022/06/22 12:34:41;;;;;;;4.45;1.02;;;27.40;56.80;;;;;;2293734;55;20938;-74
2022/06/22 12:37:22;;;;;;;4.45;1.20;;;27.40;56.70;;;;;;2300207;54;21775;-75
2022/06/22 12:40:10;;;;;;;3.80;1.30;;;27.40;56.80;;;;;;2284386;55;20956;-77
2022/06/22 12:45:53;;;;;;;3.42;1.05;;;27.40;57.10;;;;;;2295225;55;21863;-79
2022/06/22 12:48:53;;;;;;;2.78;1.10;;;27.40;57.10;;;;;;2290624;55;20948;-79
2022/06/22 12:51:59;;;;;;;3.00;0.88;;;27.50;57.20;;;;;;2412449;54;20958;-75
2022/06/22 12:54:28;;;;;;;3.12;1.12;;;27.50;57.20;;;;;;2292815;55;20957;-75
2022/06/22 12:57:01;;;;;;;3.62;1.10;;;27.50;57.10;;;;;;2290055;55;21638;-77
2022/06/22 13:01:04;;;;;;;4.62;1.05;;;27.50;57.30;;;;;;2293076;55;21017;-74
2022/06/22 13:04:55;;;;;;;5.45;1.42;;;27.60;57.30;;;;;;2293064;55;20995;-75
2022/06/22 13:07:23;;;;;;;4.15;1.10;;;27.60;57.30;;;;;;2390818;54;20977;-74
2022/06/22 13:09:49;;;;;;;3.80;0.85;;;27.70;57.20;;;;;;2319529;54;21819;-74
2022/06/22 13:12:54;;;;;;;4.32;1.15;;;27.70;57.20;;;;;;2290777;55;21083;-76
2022/06/22 13:15:36;;;;;;;4.00;1.20;;;27.70;57.50;;;;;;2293728;55;20994;-73
2022/06/22 13:21:37;;;;;;;3.85;0.95;;;27.80;57.40;;;;;;2291159;55;21021;-74
2022/06/22 13:25:09;;;;;;;4.22;0.85;;;27.80;57.10;;;;;;2178316;55;7348408;-74
2022/06/22 13:27:52;;;;;;;3.72;1.30;;;27.90;57.00;;;;;;2494627;54;20945;-74
2022/06/22 13:30:58;;;;;;;4.47;1.30;;;27.90;57.00;;;;;;2377364;54;21542;-73
2022/06/22 13:33:31;;;;;;;7.10;1.25;;;27.90;57.10;;;;;;2300290;55;21610;-73
2022/06/22 13:36:20;;;;;;;3.85;1.48;;;27.90;56.90;;;;;;2282621;54;21015;-75
2022/06/22 13:45:48;;;;;;;3.72;1.10;;;27.90;56.90;;;;;;2292456;55;20950;-75
2022/06/22 13:48:40;;;;;;;4.37;0.90;;;27.90;56.90;;;;;;2294163;55;21547;-74
2022/06/22 13:52:43;;;;;;;4.40;1.20;;;27.90;56.60;;;;;;2293143;55;21582;-75
2022/06/22 13:58:08;;;;;;;4.50;1.23;;;27.90;56.80;;;;;;2523765;54;21758;-74
2022/06/22 14:01:37;;;;;;;4.62;1.12;;;27.90;57.00;;;;;;2289973;55;21025;-73
2022/06/22 14:04:32;;;;;;;4.90;1.60;;;27.90;56.90;;;;;;2325599;54;21895;-75
2022/06/22 14:07:13;;;;;;;4.57;1.23;;;28.00;57.10;;;;;;2290518;55;20961;-74
2022/06/22 14:16:41;;;;;;;3.67;1.40;;;28.00;56.90;;;;;;2290256;55;21008;-75
2022/06/22 14:19:14;;;;;;;4.28;1.02;;;28.00;57.10;;;;;;2525147;54;21576;-76
2022/06/22 14:22:03;;;;;;;3.47;1.30;;;28.10;56.60;;;;;;2290587;55;20945;-75
2022/06/22 14:24:43;;;;;;;3.75;1.40;;;28.10;56.70;;;;;;2291068;55;20993;-74
2022/06/22 14:27:32;;;;;;;4.62;1.15;;;28.20;56.70;;;;;;2290746;55;21017;-73
2022/06/22 14:30:27;;;;;;;4.93;1.25;;;28.10;56.60;;;;;;2526003;54;20976;-75
2022/06/22 14:35:56;;;;;;;4.12;1.15;;;28.10;56.70;;;;;;2290686;55;21005;-74
2022/06/22 14:38:44;;;;;;;4.68;1.20;;;28.20;56.40;;;;;;2287897;55;21079;-76
2022/06/22 14:48:47;;;;;;;3.55;1.02;;;28.20;56.30;;;;;;2290232;55;21533;-77
2022/06/22 14:51:50;;;;;;;2.17;0.68;;;28.20;56.30;;;;;;2298103;54;21037;-75
2022/06/22 14:54:48;;;;;;;3.80;0.93;;;28.30;55.90;;;;;;2290840;55;21057;-75
2022/06/22 14:58:55;;;;;;;3.03;1.00;;;28.30;56.00;;;;;;2297712;55;20946;-76
2022/06/22 15:01:35;;;;;;;5.00;1.23;;;28.30;56.00;;;;;;2290591;55;20941;-75
2022/06/22 15:04:24;;;;;;;4.85;1.08;;;28.30;55.90;;;;;;2412431;54;21042;-75
2022/06/22 15:08:40;;;;;;;3.17;0.93;;;28.30;56.00;;;;;;2291894;55;20934;-73
2022/06/22 15:14:43;;;;;;;3.22;1.12;;;28.30;55.90;;;;;;2299550;55;21031;-73
2022/06/22 15:17:15;;;;;;;6.53;1.48;;;28.20;55.80;;;;;;2310399;54;21496;-73
2022/06/22 15:19:54;;;;;;;4.43;1.40;;;28.20;55.80;;;;;;2290053;55;21834;-74
2022/06/22 15:22:47;;;;;;;3.78;1.30;;;28.20;55.90;;;;;;2289984;55;21732;-73
2022/06/22 15:26:08;;;;;;;3.70;1.37;;;28.20;55.90;;;;;;2524680;54;20973;-75
2022/06/22 15:30:21;;;;;;;4.60;1.20;;;28.20;55.80;;;;;;2294229;55;21061;-73
2022/06/22 15:36:29;;;;;;;3.65;1.00;;;28.20;55.70;;;;;;2290700;55;21518;-73
2022/06/22 15:39:03;;;;;;;3.28;0.90;;;28.20;55.60;;;;;;2293565;55;20950;-74
2022/06/22 15:41:54;;;;;;;3.35;1.00;;;28.20;55.30;;;;;;2288664;55;20961;-75
2022/06/22 15:46:30;;;;;;;3.85;1.10;;;28.20;55.20;;;;;;2294129;55;20977;-73
2022/06/22 15:50:50;;;;;;;2.78;0.85;;;28.10;55.20;;;;;;2294173;55;20954;-73
2022/06/22 15:53:29;;;;;;;2.85;0.90;;;28.10;55.10;;;;;;2291455;55;21013;-74
2022/06/22 15:56:17;;;;;;;2.65;1.00;;;28.10;55.20;;;;;;2289903;55;21032;-74
2022/06/22 15:58:59;;;;;;;3.28;0.90;;;28.10;55.30;;;;;;2525360;54;21146;-76
2022/06/22 16:01:35;;;;;;;3.95;1.02;;;28.10;55.10;;;;;;2290030;55;21049;-74
2022/06/22 16:04:27;;;;;;;3.67;1.15;;;28.10;55.20;;;;;;2291117;55;21030;-74
2022/06/22 16:07:12;;;;;;;4.70;1.23;;;28.10;55.40;;;;;;2300411;54;21027;-74
2022/06/22 16:09:54;;;;;;;3.60;1.10;;;28.10;55.50;;;;;;2437587;54;20962;-74
2022/06/22 16:15:53;;;;;;;3.50;0.88;;;28.10;55.70;;;;;;2286319;55;21452;-76
2022/06/22 16:18:31;;;;;;;3.08;0.95;;;28.10;55.70;;;;;;2269547;55;21533;-74
2022/06/22 16:21:07;;;;;;;4.90;1.10;;;28.10;55.70;;;;;;2465021;54;20967;-73
2022/06/22 16:23:56;;;;;;;3.62;1.17;;;28.10;56.00;;;;;;2292864;55;21013;-76
2022/06/22 16:26:51;;;;;;;2.85;1.08;;;28.10;56.00;;;;;;2292455;55;21102;-75
2022/06/22 16:29:26;;;;;;;3.53;0.90;;;28.20;56.10;;;;;;2303288;54;21001;-73
2022/06/22 16:32:01;;;;;;;4.22;1.20;;;28.20;56.00;;;;;;2289023;55;20989;-72
2022/06/22 16:37:01;;;;;;;3.95;1.35;;;28.20;55.90;;;;;;2300120;53;23759;-74
2022/06/22 16:39:54;;;;;;;4.55;1.27;;;28.20;55.90;;;;;;2300999;54;21033;-73
2022/06/22 16:42:42;;;;;;;4.87;1.37;;;28.20;55.90;;;;;;2350913;54;20999;-74
2022/06/22 16:45:51;;;;;;;3.83;1.00;;;28.20;55.90;;;;;;2300795;54;21730;-74
2022/06/22 16:49:08;;;;;;;4.22;1.12;;;28.20;55.80;;;;;;2306980;54;20936;-74
2022/06/22 16:51:39;;;;;;;3.58;1.05;;;28.20;55.80;;;;;;2300743;54;20917;-74
2022/06/22 16:54:07;;;;;;;4.12;1.05;;;28.20;55.70;;;;;;2546531;53;20914;-77
2022/06/22 16:56:39;;;;;;;5.80;0.93;;;28.20;55.70;;;;;;2339531;53;21397;-74